Time;durP1;ratioP1;P1;durP2;ratioP2;P2;SDS_P1;SDS_P2;PMS_P1;PMS_P2;Temp;Humidity;BMP_temperature;BMP_pressure;BME280_temperature;BME280_humidity;BME280_pressure;Samples;Min_cycle;Max_cycle;Signal;HPM_P1;HPM_P2
2021/09/09 00:00:48;;;;;;;4.57;1.48;;;17.60;99.90;;;;;;4428967;32;20073;-63
2021/09/09 00:03:14;;;;;;;0.68;0.68;;;17.50;99.90;;;;;;4426864;32;20128;-64
2021/09/09 00:05:39;;;;;;;1.92;1.10;;;17.50;99.90;;;;;;4429669;32;20104;-64
2021/09/09 00:08:05;;;;;;;3.83;1.50;;;17.50;99.90;;;;;;4429515;32;20124;-64
2021/09/09 00:10:31;;;;;;;0.43;0.43;;;17.50;99.90;;;;;;4428706;32;20518;-64
2021/09/09 00:12:56;;;;;;;1.67;1.05;;;17.40;99.90;;;;;;4429015;32;20073;-63
2021/09/09 00:15:22;;;;;;;3.62;1.58;;;17.40;99.90;;;;;;4429783;32;20057;-64
2021/09/09 00:17:47;;;;;;;3.22;1.55;;;17.40;99.90;;;;;;4426860;32;20558;-64
2021/09/09 00:20:14;;;;;;;0.60;0.60;;;17.30;99.90;;;;;;4428300;32;20127;-64
2021/09/09 00:22:40;;;;;;;1.60;1.20;;;17.20;99.90;;;;;;4429073;32;20493;-64
2021/09/09 00:25:06;;;;;;;1.85;0.90;;;17.20;99.90;;;;;;4428832;32;20061;-64
2021/09/09 00:27:32;;;;;;;12.35;2.62;;;17.10;99.90;;;;;;4428020;32;20057;-64
2021/09/09 00:29:58;;;;;;;2.12;1.02;;;17.00;99.90;;;;;;4429574;32;20124;-63
2021/09/09 00:32:23;;;;;;;1.00;0.90;;;17.00;99.90;;;;;;4431391;32;20458;-63
2021/09/09 00:34:49;;;;;;;2.08;0.70;;;17.00;99.90;;;;;;4429173;32;20116;-64
2021/09/09 00:37:14;;;;;;;3.28;0.98;;;16.90;99.90;;;;;;4416836;32;20429;-64
2021/09/09 00:39:40;;;;;;;2.55;0.80;;;16.90;99.90;;;;;;4416734;32;20104;-64
2021/09/09 00:42:05;;;;;;;0.62;0.62;;;16.80;99.90;;;;;;4415069;32;20061;-64
2021/09/09 00:44:31;;;;;;;1.27;0.90;;;16.80;99.90;;;;;;4414552;32;20550;-64
2021/09/09 00:47:02;;;;;;;1.58;1.05;;;16.80;99.90;;;;;;4416706;32;20057;-63
2021/09/09 00:49:27;;;;;;;2.55;1.05;;;16.70;99.90;;;;;;4416542;32;20086;-64
2021/09/09 00:51:53;;;;;;;0.60;0.60;;;16.60;99.90;;;;;;4415422;32;20058;-64
2021/09/09 00:54:19;;;;;;;0.70;0.70;;;16.60;99.90;;;;;;4421222;32;20072;-63
2021/09/09 00:56:45;;;;;;;2.30;1.15;;;16.60;99.90;;;;;;4430865;32;20086;-64
2021/09/09 00:59:10;;;;;;;10.18;1.17;;;16.50;99.90;;;;;;4423098;32;20530;-63
2021/09/09 01:01:36;;;;;;;2.40;0.90;;;16.40;99.90;;;;;;4415923;32;20381;-63
2021/09/09 01:04:01;;;;;;;2.95;1.17;;;16.30;99.90;;;;;;4416555;32;20112;-64
2021/09/09 01:06:27;;;;;;;1.17;0.88;;;16.30;99.90;;;;;;4416625;32;20123;-64
2021/09/09 01:08:52;;;;;;;1.85;1.05;;;16.30;99.90;;;;;;4415950;32;20412;-64
2021/09/09 01:11:18;;;;;;;3.05;1.25;;;16.30;99.90;;;;;;4415250;32;20077;-63
2021/09/09 01:13:51;;;;;;;1.20;1.10;;;16.20;99.90;;;;;;4415581;32;20476;-64
2021/09/09 01:16:18;;;;;;;1.33;1.17;;;16.20;99.90;;;;;;4415000;32;20058;-63
2021/09/09 01:18:43;;;;;;;2.83;1.30;;;16.10;99.90;;;;;;4414755;32;20177;-63
2021/09/09 01:21:10;;;;;;;0.75;0.75;;;16.10;99.90;;;;;;4414584;32;20082;-63
2021/09/09 01:23:36;;;;;;;1.05;0.80;;;16.10;99.90;;;;;;4414340;32;20085;-63
2021/09/09 01:26:03;;;;;;;3.40;0.95;;;16.00;99.90;;;;;;4413611;32;20058;-63
2021/09/09 01:28:29;;;;;;;7.28;1.98;;;16.00;99.90;;;;;;4413827;32;20120;-63
2021/09/09 01:30:55;;;;;;;0.62;0.57;;;15.90;99.90;;;;;;4415914;32;20518;-62
2021/09/09 01:33:20;;;;;;;1.15;0.90;;;15.80;99.90;;;;;;4415990;32;20074;-63
2021/09/09 01:35:46;;;;;;;1.10;1.00;;;15.90;99.90;;;;;;4415704;32;20057;-64
2021/09/09 01:38:20;;;;;;;0.60;0.60;;;15.90;99.90;;;;;;4416470;32;20077;-63
2021/09/09 01:40:46;;;;;;;1.48;0.90;;;15.90;99.90;;;;;;4414575;32;20149;-64
2021/09/09 01:43:11;;;;;;;0.75;0.75;;;15.90;99.90;;;;;;4414711;32;20507;-64
2021/09/09 01:45:37;;;;;;;0.60;0.60;;;15.90;99.90;;;;;;4415680;32;20065;-64
2021/09/09 01:48:02;;;;;;;2.00;1.10;;;15.80;99.90;;;;;;4413486;32;20057;-63
2021/09/09 01:50:28;;;;;;;0.50;0.50;;;15.80;99.90;;;;;;4414657;32;20070;-63
2021/09/09 01:52:53;;;;;;;1.45;1.17;;;15.80;99.90;;;;;;4415520;32;20081;-63
2021/09/09 01:55:19;;;;;;;2.92;0.80;;;15.60;99.90;;;;;;4429044;32;20061;-63
2021/09/09 01:57:44;;;;;;;2.60;0.85;;;15.60;99.90;;;;;;4431216;32;20581;-63
2021/09/09 02:00:11;;;;;;;1.58;0.95;;;15.60;99.90;;;;;;4430476;32;20678;-63
2021/09/09 02:02:36;;;;;;;2.37;1.02;;;15.60;99.90;;;;;;4429093;32;20065;-63
2021/09/09 02:05:02;;;;;;;0.50;0.50;;;15.60;99.90;;;;;;4429088;32;20075;-63
2021/09/09 02:07:28;;;;;;;1.35;1.00;;;15.60;99.90;;;;;;4428570;32;20578;-64
2021/09/09 02:09:53;;;;;;;0.80;0.73;;;15.50;99.90;;;;;;4429727;32;20467;-63
2021/09/09 02:12:19;;;;;;;0.65;0.65;;;15.50;99.90;;;;;;4430100;32;20057;-63
2021/09/09 02:14:44;;;;;;;1.95;0.70;;;15.50;99.90;;;;;;4429795;32;20062;-63
2021/09/09 02:17:10;;;;;;;1.75;0.98;;;15.40;99.90;;;;;;4429329;32;20106;-63
2021/09/09 02:19:35;;;;;;;1.55;1.15;;;15.30;99.90;;;;;;4429790;32;20149;-63
2021/09/09 02:22:01;;;;;;;2.87;1.17;;;15.20;99.90;;;;;;4430753;32;20065;-63
2021/09/09 02:24:26;;;;;;;2.62;0.50;;;15.10;99.90;;;;;;4430250;32;20078;-64
2021/09/09 02:26:52;;;;;;;4.93;1.27;;;15.10;99.90;;;;;;4431040;32;20078;-63
2021/09/09 02:29:17;;;;;;;1.52;0.88;;;15.10;99.90;;;;;;4428947;32;20057;-63
2021/09/09 02:31:43;;;;;;;6.80;2.08;;;15.20;99.90;;;;;;4430575;32;20519;-64
2021/09/09 02:34:08;;;;;;;1.58;1.00;;;15.20;99.90;;;;;;4429476;32;20069;-63
2021/09/09 02:36:34;;;;;;;1.50;1.12;;;15.20;99.90;;;;;;4415717;32;20061;-65
2021/09/09 02:38:59;;;;;;;0.65;0.65;;;15.30;99.90;;;;;;4415000;32;20061;-63
2021/09/09 02:41:25;;;;;;;0.77;0.77;;;15.20;99.90;;;;;;4415135;32;20086;-63
2021/09/09 02:43:50;;;;;;;2.08;1.15;;;15.20;99.90;;;;;;4414839;32;20061;-63
2021/09/09 02:46:16;;;;;;;0.85;0.82;;;15.00;99.90;;;;;;4413872;32;20058;-63
2021/09/09 02:48:41;;;;;;;2.08;1.35;;;15.00;99.90;;;;;;4414030;32;20061;-64
2021/09/09 02:51:07;;;;;;;3.75;1.52;;;15.00;99.90;;;;;;4414146;32;20073;-63
2021/09/09 02:53:32;;;;;;;1.55;0.82;;;15.00;99.90;;;;;;4415068;32;20142;-63
2021/09/09 02:55:58;;;;;;;4.03;0.82;;;14.90;99.90;;;;;;4430122;32;20509;-63
2021/09/09 02:58:23;;;;;;;3.67;1.80;;;14.90;99.90;;;;;;4428591;32;20053;-64
2021/09/09 03:00:49;;;;;;;1.85;1.08;;;15.00;99.90;;;;;;4429755;32;20221;-63
2021/09/09 03:03:14;;;;;;;0.50;0.50;;;15.00;99.90;;;;;;4429912;32;20057;-63
2021/09/09 03:05:40;;;;;;;9.27;1.37;;;15.00;99.90;;;;;;4427785;32;20085;-63
2021/09/09 03:08:05;;;;;;;0.88;0.80;;;14.90;99.90;;;;;;4430343;32;20069;-63
2021/09/09 03:10:31;;;;;;;1.65;0.70;;;14.80;99.90;;;;;;4429715;32;20065;-63
2021/09/09 03:12:56;;;;;;;1.05;1.05;;;14.90;99.90;;;;;;4429515;32;20116;-64
2021/09/09 03:15:22;;;;;;;2.20;0.77;;;14.90;99.90;;;;;;4429950;32;20473;-63
2021/09/09 03:17:47;;;;;;;9.32;1.17;;;14.90;99.90;;;;;;4429813;32;20057;-64
2021/09/09 03:20:13;;;;;;;2.50;1.20;;;14.90;99.90;;;;;;4429182;32;20400;-63
2021/09/09 03:22:38;;;;;;;1.60;1.15;;;14.90;99.90;;;;;;4429208;32;20065;-63
2021/09/09 03:25:04;;;;;;;1.23;0.85;;;14.90;99.90;;;;;;4428917;32;20065;-62
2021/09/09 03:27:29;;;;;;;1.85;1.08;;;14.90;99.90;;;;;;4428631;32;20404;-63
2021/09/09 03:29:55;;;;;;;1.25;1.10;;;15.00;99.90;;;;;;4429020;32;20116;-63
2021/09/09 03:32:21;;;;;;;0.80;0.80;;;14.90;99.90;;;;;;4429643;32;20077;-63
2021/09/09 03:34:46;;;;;;;1.62;1.10;;;14.90;99.90;;;;;;4428320;32;20062;-63
2021/09/09 03:37:11;;;;;;;0.95;0.77;;;14.90;99.90;;;;;;4413164;32;20138;-63
2021/09/09 03:39:37;;;;;;;1.25;1.00;;;14.80;99.90;;;;;;4413240;32;20587;-64
2021/09/09 03:42:03;;;;;;;1.87;0.85;;;14.80;99.90;;;;;;4413252;32;20066;-63
2021/09/09 03:44:28;;;;;;;1.33;0.80;;;14.80;99.90;;;;;;4412344;32;20096;-63
2021/09/09 03:46:54;;;;;;;5.60;1.25;;;14.80;99.90;;;;;;4413248;32;20069;-63
2021/09/09 03:49:19;;;;;;;2.58;0.90;;;14.80;99.90;;;;;;4413910;32;20057;-63
2021/09/09 03:51:45;;;;;;;1.55;0.93;;;14.80;99.90;;;;;;4414073;32;20561;-64
2021/09/09 03:54:10;;;;;;;1.17;0.98;;;14.80;99.90;;;;;;4420384;32;20069;-63
2021/09/09 03:56:36;;;;;;;2.35;1.12;;;14.80;99.90;;;;;;4428754;32;20117;-63
2021/09/09 03:59:01;;;;;;;1.80;1.42;;;14.80;99.90;;;;;;4428218;32;20065;-63
2021/09/09 04:01:27;;;;;;;2.70;1.60;;;14.80;99.90;;;;;;4429020;32;20176;-63
2021/09/09 04:03:52;;;;;;;0.93;0.85;;;14.80;99.90;;;;;;4429479;32;20494;-63
2021/09/09 04:06:20;;;;;;;1.58;0.93;;;14.80;99.90;;;;;;4431928;32;20078;-63
2021/09/09 04:08:45;;;;;;;1.02;0.90;;;14.80;99.90;;;;;;4432031;32;20127;-63
2021/09/09 04:11:11;;;;;;;0.70;0.70;;;14.70;99.90;;;;;;4432571;32;20057;-63
2021/09/09 04:13:37;;;;;;;0.70;0.70;;;14.60;99.90;;;;;;4430222;32;20065;-63
2021/09/09 04:16:03;;;;;;;2.85;0.82;;;14.60;99.90;;;;;;4431110;32;20560;-63
2021/09/09 04:18:28;;;;;;;2.42;1.17;;;14.50;99.90;;;;;;4431609;32;20157;-63
2021/09/09 04:20:54;;;;;;;1.67;1.40;;;14.50;99.90;;;;;;4428500;32;20065;-63
2021/09/09 04:23:19;;;;;;;1.40;1.05;;;14.50;99.90;;;;;;4412714;32;20057;-63
2021/09/09 04:25:45;;;;;;;0.75;0.75;;;14.50;99.90;;;;;;4414986;32;20065;-63
2021/09/09 04:28:10;;;;;;;1.90;1.20;;;14.60;99.90;;;;;;4417112;32;20061;-63
2021/09/09 04:30:36;;;;;;;1.40;0.88;;;14.50;99.90;;;;;;4415175;32;20576;-63
2021/09/09 04:33:01;;;;;;;0.68;0.68;;;14.50;99.90;;;;;;4415643;32;20115;-63
2021/09/09 04:35:27;;;;;;;0.52;0.50;;;14.40;99.90;;;;;;4411100;32;20066;-61
2021/09/09 04:37:52;;;;;;;1.00;0.70;;;14.30;99.90;;;;;;4401150;32;20074;-63
2021/09/09 04:40:18;;;;;;;2.03;0.90;;;14.30;99.90;;;;;;4407831;32;20082;-63
2021/09/09 04:42:43;;;;;;;2.47;1.00;;;14.30;99.90;;;;;;4416360;32;20462;-63
2021/09/09 04:45:09;;;;;;;1.80;0.98;;;14.40;99.90;;;;;;4415952;32;20133;-63
2021/09/09 04:47:36;;;;;;;1.25;1.00;;;14.40;99.90;;;;;;4416612;32;20086;-63
2021/09/09 04:50:02;;;;;;;1.33;0.95;;;14.50;99.90;;;;;;4416604;32;20353;-63
2021/09/09 04:52:28;;;;;;;9.23;1.00;;;14.50;99.90;;;;;;4413195;32;20074;-63
2021/09/09 04:54:53;;;;;;;2.12;0.98;;;14.50;99.90;;;;;;4415660;32;20073;-63
2021/09/09 04:57:19;;;;;;;2.47;0.88;;;14.50;99.90;;;;;;4416271;32;20360;-63
2021/09/09 04:59:44;;;;;;;1.42;0.60;;;14.60;99.90;;;;;;4412072;32;20127;-63
2021/09/09 05:02:10;;;;;;;2.92;1.15;;;14.70;99.90;;;;;;4405008;32;20408;-63
2021/09/09 05:04:38;;;;;;;0.95;0.80;;;14.70;99.90;;;;;;4408614;32;20073;-63
2021/09/09 05:07:04;;;;;;;1.02;0.93;;;14.80;99.90;;;;;;4411239;32;20436;-63
2021/09/09 05:09:29;;;;;;;3.12;0.88;;;14.80;99.90;;;;;;4413887;32;20094;-63
2021/09/09 05:11:55;;;;;;;1.73;0.77;;;14.80;99.90;;;;;;4408091;32;20078;-63
2021/09/09 05:14:20;;;;;;;2.25;0.70;;;14.80;99.90;;;;;;4414542;32;20058;-63
2021/09/09 05:16:46;;;;;;;4.30;1.00;;;14.70;99.90;;;;;;4402645;32;21374;-63
2021/09/09 05:19:11;;;;;;;1.33;1.10;;;14.70;99.90;;;;;;4402128;32;20085;-64
2021/09/09 05:21:37;;;;;;;3.60;1.45;;;14.80;99.90;;;;;;4411211;32;20140;-63
2021/09/09 05:24:03;;;;;;;1.80;1.25;;;14.80;99.90;;;;;;4422949;32;20077;-64
2021/09/09 05:26:28;;;;;;;2.70;1.48;;;14.80;99.90;;;;;;4412433;32;20529;-63
2021/09/09 05:28:54;;;;;;;0.90;0.85;;;14.90;99.90;;;;;;4400103;32;20244;-63
2021/09/09 05:31:20;;;;;;;0.80;0.80;;;15.00;99.90;;;;;;4390643;32;20468;-64
2021/09/09 05:33:45;;;;;;;4.45;1.30;;;15.10;99.90;;;;;;4403992;32;20406;-63
2021/09/09 05:36:11;;;;;;;1.05;1.00;;;15.10;99.90;;;;;;4409695;32;20069;-63
2021/09/09 05:38:36;;;;;;;1.80;0.88;;;15.10;99.90;;;;;;4404881;32;20062;-63
2021/09/09 05:41:02;;;;;;;0.70;0.70;;;15.20;99.90;;;;;;4409911;32;20133;-64
2021/09/09 05:43:27;;;;;;;1.25;0.88;;;15.30;99.90;;;;;;4404316;32;20320;-64
2021/09/09 05:45:53;;;;;;;1.45;1.10;;;15.30;99.90;;;;;;4406476;32;20145;-62
2021/09/09 05:48:19;;;;;;;1.48;1.37;;;15.40;99.90;;;;;;4404113;32;20074;-64
2021/09/09 05:50:44;;;;;;;2.45;0.65;;;15.40;99.90;;;;;;4404919;32;20935;-66
2021/09/09 05:53:10;;;;;;;0.70;0.70;;;15.50;99.90;;;;;;4398847;32;20058;-64
2021/09/09 05:55:35;;;;;;;1.37;0.68;;;15.60;99.90;;;;;;4400561;32;20387;-63
2021/09/09 05:58:01;;;;;;;0.70;0.70;;;15.60;99.90;;;;;;4401146;32;20089;-63
2021/09/09 06:00:26;;;;;;;1.02;0.93;;;15.70;99.90;;;;;;4405032;32;20554;-64
2021/09/09 06:02:52;;;;;;;2.05;1.40;;;15.70;99.90;;;;;;4399286;32;20140;-64
2021/09/09 06:05:19;;;;;;;0.80;0.75;;;15.70;99.90;;;;;;4399760;32;20093;-65
2021/09/09 06:07:45;;;;;;;0.45;0.45;;;15.80;99.90;;;;;;4404711;32;20082;-68
2021/09/09 06:10:11;;;;;;;1.45;0.82;;;15.90;99.90;;;;;;4405341;32;20178;-64
2021/09/09 06:12:37;;;;;;;3.00;1.48;;;16.00;99.90;;;;;;4401411;32;20065;-65
2021/09/09 06:15:04;;;;;;;9.60;1.08;;;16.00;99.90;;;;;;4400948;32;20117;-64
2021/09/09 06:17:30;;;;;;;2.17;1.08;;;16.10;99.90;;;;;;4398993;32;20148;-66
2021/09/09 06:19:55;;;;;;;2.33;1.48;;;16.10;99.90;;;;;;4405947;32;20093;-64
2021/09/09 06:22:21;;;;;;;0.45;0.45;;;16.20;99.90;;;;;;4400689;32;20073;-64
2021/09/09 06:24:46;;;;;;;1.02;0.95;;;16.30;99.90;;;;;;4400524;32;72610;-64
2021/09/09 06:27:12;;;;;;;3.72;1.23;;;16.30;99.90;;;;;;4397665;32;20417;-65
2021/09/09 06:29:37;;;;;;;0.55;0.47;;;16.40;99.90;;;;;;4403479;32;20081;-63
2021/09/09 06:32:03;;;;;;;0.82;0.75;;;16.50;99.90;;;;;;4400095;32;20472;-64
2021/09/09 06:34:30;;;;;;;2.58;1.25;;;16.60;99.90;;;;;;4401855;32;20061;-64
2021/09/09 06:36:55;;;;;;;1.83;0.70;;;16.70;99.90;;;;;;4403510;32;20106;-64
2021/09/09 06:39:21;;;;;;;0.85;0.82;;;16.70;99.90;;;;;;4403225;32;20514;-64
2021/09/09 06:41:46;;;;;;;2.35;0.70;;;16.70;99.90;;;;;;4405202;32;20168;-65
2021/09/09 06:44:13;;;;;;;0.60;0.60;;;16.80;99.90;;;;;;4409138;32;20081;-64
2021/09/09 06:46:39;;;;;;;1.27;1.10;;;17.00;99.90;;;;;;4408478;32;20065;-64
2021/09/09 06:49:05;;;;;;;1.55;0.40;;;17.00;99.90;;;;;;4402271;32;20053;-65
2021/09/09 06:51:31;;;;;;;1.85;1.00;;;17.10;99.90;;;;;;4397802;32;20692;-65
2021/09/09 06:53:57;;;;;;;2.12;0.80;;;17.20;99.90;;;;;;4396888;32;20065;-66
2021/09/09 06:56:22;;;;;;;0.90;0.62;;;17.30;99.90;;;;;;4399664;32;20061;-64
2021/09/09 06:58:48;;;;;;;0.95;0.90;;;17.30;99.90;;;;;;4397868;32;20447;-65
2021/09/09 07:01:13;;;;;;;0.82;0.82;;;17.40;99.90;;;;;;4401462;32;20633;-63
2021/09/09 07:03:39;;;;;;;1.35;0.60;;;17.40;99.90;;;;;;4399371;32;20074;-65
2021/09/09 07:06:04;;;;;;;1.08;1.00;;;17.50;99.90;;;;;;4401345;32;20077;-67
2021/09/09 07:08:30;;;;;;;1.08;0.98;;;17.60;99.90;;;;;;4399785;32;20554;-64
2021/09/09 07:10:55;;;;;;;0.62;0.57;;;17.60;99.90;;;;;;4402838;32;20117;-66
2021/09/09 07:13:22;;;;;;;0.65;0.65;;;17.70;99.90;;;;;;4398430;32;20243;-64
2021/09/09 07:15:47;;;;;;;0.43;0.43;;;17.70;99.90;;;;;;4403066;32;20077;-65
2021/09/09 07:18:13;;;;;;;0.57;0.57;;;17.70;99.90;;;;;;4400386;32;20593;-64
2021/09/09 07:20:38;;;;;;;4.47;0.88;;;17.70;99.90;;;;;;4398203;32;20090;-65
2021/09/09 07:23:04;;;;;;;0.93;0.82;;;17.80;99.90;;;;;;4397226;32;20105;-64
2021/09/09 07:25:29;;;;;;;0.40;0.40;;;17.90;99.90;;;;;;4405028;32;20093;-65
2021/09/09 07:27:55;;;;;;;7.37;1.15;;;18.00;99.90;;;;;;4404976;32;20108;-65
2021/09/09 07:30:21;;;;;;;7.57;0.62;;;18.00;99.90;;;;;;4401469;32;20065;-64
2021/09/09 07:32:46;;;;;;;5.55;1.73;;;18.10;99.90;;;;;;4396658;32;20089;-65
2021/09/09 07:35:12;;;;;;;0.60;0.60;;;18.10;99.90;;;;;;4403200;32;20381;-64
2021/09/09 07:37:40;;;;;;;0.47;0.47;;;18.20;99.90;;;;;;4403326;32;20381;-64
2021/09/09 07:40:07;;;;;;;4.68;2.00;;;18.20;99.90;;;;;;4408227;32;20156;-65
2021/09/09 07:42:33;;;;;;;0.82;0.55;;;18.30;99.90;;;;;;4403375;32;20062;-69
2021/09/09 07:44:59;;;;;;;1.67;0.90;;;18.40;99.90;;;;;;4408700;32;20073;-64
2021/09/09 07:47:24;;;;;;;0.30;0.30;;;18.40;99.90;;;;;;4409200;32;20113;-65
2021/09/09 07:49:50;;;;;;;0.77;0.77;;;18.40;99.90;;;;;;4404946;32;20089;-65
2021/09/09 07:52:15;;;;;;;3.80;1.42;;;18.40;99.90;;;;;;4403617;32;20637;-65
2021/09/09 07:54:41;;;;;;;0.62;0.62;;;18.40;99.90;;;;;;4402261;32;20094;-65
2021/09/09 07:57:06;;;;;;;0.77;0.60;;;18.50;99.90;;;;;;4406176;32;20838;-65
2021/09/09 07:59:32;;;;;;;0.45;0.45;;;18.60;99.90;;;;;;4409817;32;20165;-65
2021/09/09 08:01:57;;;;;;;0.52;0.52;;;18.60;99.90;;;;;;4401591;32;20124;-66
2021/09/09 08:04:24;;;;;;;1.98;0.60;;;18.70;99.90;;;;;;4406967;32;20149;-66
2021/09/09 08:06:50;;;;;;;4.12;0.88;;;18.80;99.90;;;;;;4409303;32;20077;-65
2021/09/09 08:09:15;;;;;;;0.55;0.55;;;18.80;99.90;;;;;;4399172;32;20312;-64
2021/09/09 08:11:41;;;;;;;2.47;0.95;;;18.90;99.90;;;;;;4405931;32;20066;-66
2021/09/09 08:14:07;;;;;;;0.50;0.50;;;19.00;99.90;;;;;;4405677;32;20073;-66
2021/09/09 08:16:33;;;;;;;0.68;0.68;;;19.00;99.90;;;;;;4408618;32;20066;-66
2021/09/09 08:18:58;;;;;;;0.77;0.77;;;19.10;99.90;;;;;;4399862;32;20073;-66
2021/09/09 08:21:24;;;;;;;0.68;0.45;;;19.10;99.90;;;;;;4407371;32;20806;-65
2021/09/09 08:23:49;;;;;;;0.88;0.80;;;19.30;99.90;;;;;;4408779;32;20090;-65
2021/09/09 08:26:15;;;;;;;1.08;0.82;;;19.40;99.90;;;;;;4415914;32;20763;-66
2021/09/09 08:28:40;;;;;;;1.23;1.10;;;19.30;99.90;;;;;;4406225;32;20074;-65
2021/09/09 08:31:06;;;;;;;0.55;0.55;;;19.40;99.90;;;;;;4401423;32;20061;-65
2021/09/09 08:33:32;;;;;;;1.08;0.60;;;19.50;99.90;;;;;;4403223;32;20554;-66
2021/09/09 08:36:03;;;;;;;4.60;0.82;;;19.60;99.90;;;;;;4408164;32;20560;-65
2021/09/09 08:38:29;;;;;;;;;;;19.70;99.90;;;;;;4402251;32;20077;-64
2021/09/09 08:40:54;;;;;;;1.98;1.27;;;19.70;99.90;;;;;;4406729;32;20237;-64
2021/09/09 08:43:20;;;;;;;0.77;0.77;;;19.80;99.90;;;;;;4401685;32;20386;-65
2021/09/09 08:45:51;;;;;;;0.47;0.47;;;19.90;99.90;;;;;;4400061;32;20066;-64
2021/09/09 08:48:17;;;;;;;0.50;0.50;;;20.00;99.90;;;;;;4399973;32;20499;-65
2021/09/09 08:50:42;;;;;;;0.40;0.40;;;20.10;99.90;;;;;;4398613;32;20089;-65
2021/09/09 08:53:09;;;;;;;1.00;0.80;;;20.10;99.90;;;;;;4404861;32;20066;-65
2021/09/09 08:55:35;;;;;;;2.05;1.00;;;20.20;99.90;;;;;;4402994;32;20136;-64
2021/09/09 08:58:02;;;;;;;0.60;0.60;;;20.30;99.90;;;;;;4405152;32;20228;-65
2021/09/09 09:00:28;;;;;;;1.00;0.80;;;20.40;99.90;;;;;;4403810;32;20106;-64
2021/09/09 09:02:55;;;;;;;7.62;0.82;;;20.40;99.90;;;;;;4400599;32;20354;-65
2021/09/09 09:05:22;;;;;;;1.77;0.88;;;20.50;99.90;;;;;;4405556;32;20069;-64
2021/09/09 09:07:56;;;;;;;2.35;0.82;;;20.60;99.90;;;;;;4408065;32;20073;-65
2021/09/09 09:10:22;;;;;;;0.30;0.30;;;20.70;99.90;;;;;;4417200;32;20078;-64
2021/09/09 09:12:48;;;;;;;0.30;0.30;;;20.80;99.90;;;;;;4408495;32;20384;-64
2021/09/09 09:15:18;;;;;;;0.55;0.50;;;20.80;99.90;;;;;;4403749;32;20665;-64
2021/09/09 09:17:53;;;;;;;1.58;1.05;;;21.00;99.90;;;;;;4411469;32;20953;-65
2021/09/09 09:20:19;;;;;;;0.40;0.40;;;21.10;99.90;;;;;;4401604;32;20428;-65
2021/09/09 09:22:44;;;;;;;6.15;1.10;;;21.10;99.90;;;;;;4406613;32;20112;-64
2021/09/09 09:25:10;;;;;;;1.10;0.95;;;21.30;99.90;;;;;;4399393;32;20136;-64
2021/09/09 09:27:45;;;;;;;0.60;0.60;;;21.40;99.90;;;;;;4401482;32;20097;-64
2021/09/09 09:30:12;;;;;;;0.75;0.68;;;21.50;99.90;;;;;;4409163;32;20186;-64
2021/09/09 09:32:47;;;;;;;1.00;0.65;;;21.50;99.90;;;;;;4401055;32;20081;-64
2021/09/09 09:35:16;;;;;;;0.40;0.40;;;21.60;99.90;;;;;;4405907;32;20085;-64
2021/09/09 09:38:05;;;;;;;0.65;0.60;;;21.90;99.90;;;;;;4402152;32;20077;-64
2021/09/09 09:40:36;;;;;;;3.17;1.15;;;22.20;99.90;;;;;;4406698;32;20437;-66
2021/09/09 09:43:11;;;;;;;5.10;1.12;;;22.30;99.90;;;;;;4405191;32;20090;-63
2021/09/09 09:45:50;;;;;;;0.47;0.47;;;22.40;99.90;;;;;;4407584;32;20113;-65
2021/09/09 09:48:33;;;;;;;0.75;0.75;;;22.40;99.90;;;;;;4415255;32;20281;-65
2021/09/09 09:51:02;;;;;;;0.40;0.40;;;22.70;99.90;;;;;;4401218;32;20168;-65
2021/09/09 09:53:28;;;;;;;2.42;1.25;;;22.80;99.90;;;;;;4403626;32;20481;-65
2021/09/09 09:55:54;;;;;;;0.40;0.40;;;22.80;99.90;;;;;;4400258;32;20065;-65
2021/09/09 09:58:19;;;;;;;0.55;0.55;;;23.00;99.90;;;;;;4401729;32;20125;-65
2021/09/09 10:00:45;;;;;;;11.88;1.48;;;23.10;99.90;;;;;;4402963;32;20081;-65
2021/09/09 10:03:13;;;;;;;0.50;0.50;;;23.30;99.90;;;;;;4403702;32;20081;-65
2021/09/09 10:05:39;;;;;;;0.50;0.50;;;23.30;99.90;;;;;;4397588;32;20146;-65
2021/09/09 10:08:06;;;;;;;0.73;0.68;;;23.40;99.90;;;;;;4401817;32;20071;-65
2021/09/09 10:10:32;;;;;;;0.50;0.50;;;23.50;99.10;;;;;;4399371;32;20098;-65
2021/09/09 10:12:58;;;;;;;2.28;1.17;;;23.60;99.30;;;;;;4405067;32;20483;-65
2021/09/09 10:15:24;;;;;;;0.32;0.32;;;23.60;99.60;;;;;;4400839;32;20105;-65
2021/09/09 10:17:52;;;;;;;1.35;0.62;;;23.80;99.70;;;;;;4396343;32;20082;-65
2021/09/09 10:20:41;;;;;;;0.30;0.30;;;24.00;99.50;;;;;;4397848;32;20074;-65
2021/09/09 10:23:14;;;;;;;0.35;0.35;;;24.20;98.60;;;;;;4403754;32;20400;-65
2021/09/09 10:25:44;;;;;;;0.95;0.75;;;24.10;99.50;;;;;;4403723;32;20138;-65
2021/09/09 10:31:03;;;;;;;0.60;0.60;;;24.50;98.80;;;;;;4399397;32;20054;-65
2021/09/09 10:33:30;;;;;;;0.40;0.40;;;24.70;98.10;;;;;;4400766;32;20062;-64
2021/09/09 10:35:58;;;;;;;1.95;0.80;;;24.80;97.80;;;;;;4390956;32;20090;-64
2021/09/09 10:38:26;;;;;;;9.10;0.90;;;24.90;97.60;;;;;;4406354;32;20113;-65
2021/09/09 10:40:52;;;;;;;0.40;0.40;;;24.90;97.90;;;;;;4402727;32;20228;-65
2021/09/09 10:43:27;;;;;;;0.88;0.60;;;24.90;96.90;;;;;;4399758;32;20632;-65
2021/09/09 10:46:12;;;;;;;0.55;0.52;;;24.80;97.60;;;;;;4401771;32;20072;-65
2021/09/09 10:48:38;;;;;;;0.98;0.50;;;24.70;97.70;;;;;;4397217;32;20472;-64
2021/09/09 10:51:07;;;;;;;0.30;0.30;;;24.80;97.80;;;;;;4401301;32;20070;-66
2021/09/09 10:53:39;;;;;;;1.95;0.82;;;25.20;97.20;;;;;;4401916;32;20076;-64
2021/09/09 10:56:16;;;;;;;0.82;0.50;;;25.60;96.60;;;;;;4410722;32;20093;-65
2021/09/09 10:58:43;;;;;;;0.75;0.60;;;25.70;96.50;;;;;;4400325;32;20055;-65
2021/09/09 11:01:09;;;;;;;1.42;0.65;;;25.50;96.80;;;;;;4398311;32;20074;-65
2021/09/09 11:03:50;;;;;;;0.70;0.50;;;25.50;97.40;;;;;;4403260;32;20799;-65
2021/09/09 11:06:25;;;;;;;0.50;0.50;;;25.70;96.80;;;;;;4404156;32;20081;-65
2021/09/09 11:08:53;;;;;;;1.02;0.93;;;25.70;96.30;;;;;;4397894;32;20087;-65
2021/09/09 11:11:23;;;;;;;0.73;0.30;;;25.90;96.10;;;;;;4410047;32;20322;-65
2021/09/09 11:13:57;;;;;;;1.25;0.47;;;26.10;96.30;;;;;;4402511;32;20046;-64
2021/09/09 11:16:29;;;;;;;0.40;0.40;;;26.10;95.90;;;;;;4401603;32;20122;-65
2021/09/09 11:18:55;;;;;;;19.50;1.95;;;26.30;95.60;;;;;;4403205;32;20128;-65
2021/09/09 11:21:24;;;;;;;0.77;0.77;;;26.60;95.80;;;;;;4403326;32;20469;-65
2021/09/09 11:23:58;;;;;;;2.00;1.02;;;26.70;95.30;;;;;;4402439;32;20090;-64
2021/09/09 11:26:25;;;;;;;1.60;0.45;;;26.90;95.00;;;;;;4403756;32;20124;-64
2021/09/09 11:28:52;;;;;;;0.57;0.55;;;27.20;95.00;;;;;;4404246;32;20518;-65
2021/09/09 11:31:21;;;;;;;0.25;0.20;;;27.40;94.70;;;;;;4387171;32;20093;-64
2021/09/09 11:33:50;;;;;;;5.28;1.25;;;27.80;93.40;;;;;;4406154;32;20204;-64
2021/09/09 11:36:17;;;;;;;0.40;0.30;;;27.80;93.70;;;;;;4400638;32;20057;-65
2021/09/09 11:38:43;;;;;;;2.95;1.05;;;27.90;93.40;;;;;;4404203;32;20125;-65
2021/09/09 11:41:12;;;;;;;0.40;0.40;;;28.30;93.40;;;;;;4403976;32;20514;-65
2021/09/09 11:43:40;;;;;;;0.57;0.25;;;28.20;91.80;;;;;;4397423;32;20082;-65
2021/09/09 11:46:06;;;;;;;1.20;0.37;;;28.50;92.20;;;;;;4401351;32;20105;-63
2021/09/09 11:48:31;;;;;;;1.42;0.50;;;28.70;90.90;;;;;;4398780;32;20194;-63
2021/09/09 11:50:57;;;;;;;2.55;0.75;;;28.70;90.90;;;;;;4401132;32;20075;-63
2021/09/09 11:53:24;;;;;;;10.50;1.70;;;28.90;91.10;;;;;;4406316;32;20232;-64
2021/09/09 11:55:50;;;;;;;0.93;0.40;;;28.90;90.70;;;;;;4403696;32;20127;-64
2021/09/09 11:58:37;;;;;;;1.50;1.00;;;29.00;91.20;;;;;;4403828;32;20078;-63
2021/09/09 12:01:06;;;;;;;1.35;0.60;;;29.20;90.40;;;;;;4402213;32;20499;-64
2021/09/09 12:03:34;;;;;;;0.93;0.55;;;29.80;90.00;;;;;;4406305;32;20062;-63
2021/09/09 12:06:00;;;;;;;0.62;0.50;;;29.70;89.30;;;;;;4404577;32;20081;-64
2021/09/09 12:08:26;;;;;;;0.80;0.43;;;29.90;90.10;;;;;;4399528;32;20379;-64
2021/09/09 12:11:06;;;;;;;0.45;0.43;;;30.00;89.10;;;;;;4401358;32;20468;-64
2021/09/09 12:13:33;;;;;;;0.52;0.52;;;30.40;86.80;;;;;;4405087;32;20240;-64
2021/09/09 12:16:11;;;;;;;0.85;0.55;;;30.20;87.30;;;;;;4403783;32;20072;-61
2021/09/09 12:18:36;;;;;;;0.57;0.45;;;30.20;87.60;;;;;;4407107;32;20125;-65
2021/09/09 12:21:24;;;;;;;1.40;1.08;;;30.40;87.30;;;;;;4408342;32;20081;-65
2021/09/09 12:23:59;;;;;;;0.50;0.50;;;30.50;85.50;;;;;;4411052;32;20144;-64
2021/09/09 12:26:25;;;;;;;0.10;0.10;;;30.80;84.90;;;;;;4395452;32;20476;-65
2021/09/09 12:28:51;;;;;;;0.17;0.17;;;30.80;85.20;;;;;;4408131;32;20061;-64
2021/09/09 12:31:31;;;;;;;0.50;0.50;;;31.00;85.30;;;;;;4405487;32;20137;-64
2021/09/09 12:33:56;;;;;;;1.27;0.77;;;31.40;83.70;;;;;;4418425;32;20114;-65
2021/09/09 12:36:23;;;;;;;0.37;0.37;;;31.40;82.70;;;;;;4404225;32;20078;-65
2021/09/09 12:38:52;;;;;;;0.30;0.30;;;31.20;83.70;;;;;;4406733;32;20065;-65
2021/09/09 12:41:20;;;;;;;25.00;1.10;;;31.30;84.40;;;;;;4408286;32;20534;-65
2021/09/09 12:43:50;;;;;;;0.50;0.50;;;31.80;83.50;;;;;;4406484;32;20529;-65
2021/09/09 12:46:37;;;;;;;2.03;1.25;;;31.60;82.40;;;;;;4404118;32;20130;-66
2021/09/09 12:49:07;;;;;;;1.85;0.55;;;31.40;82.40;;;;;;4398527;32;20125;-65